sensor_id;sensor_type;location;lat;lon;timestamp;pressure;altitude;pressure_sealevel;temperature;humidity
23589;BME280;11972;48.078;11.876;2022-07-09T00:03:37;96454.78;;;9.19;100.00
23589;BME280;11972;48.078;11.876;2022-07-09T00:07:38;96453.41;;;9.15;100.00
23589;BME280;11972;48.078;11.876;2022-07-09T00:11:38;96454.03;;;9.09;100.00
23589;BME280;11972;48.078;11.876;2022-07-09T00:15:38;96448.00;;;8.99;100.00
23589;BME280;11972;48.078;11.876;2022-07-09T00:19:39;96454.38;;;8.97;100.00
23589;BME280;11972;48.078;11.876;2022-07-09T00:23:39;96442.44;;;9.02;100.00
23589;BME280;11972;48.078;11.876;2022-07-09T00:27:40;96435.81;;;8.98;100.00
23589;BME280;11972;48.078;11.876;2022-07-09T00:31:40;96438.88;;;8.93;100.00
23589;BME280;11972;48.078;11.876;2022-07-09T00:35:40;96429.47;;;8.91;100.00
23589;BME280;11972;48.078;11.876;2022-07-09T00:39:41;96434.56;;;8.92;100.00
23589;BME280;11972;48.078;11.876;2022-07-09T00:43:49;96433.91;;;8.90;100.00
23589;BME280;11972;48.078;11.876;2022-07-09T00:47:49;96434.06;;;8.89;100.00
23589;BME280;11972;48.078;11.876;2022-07-09T00:51:50;96425.63;;;8.85;100.00
23589;BME280;11972;48.078;11.876;2022-07-09T00:55:50;96422.31;;;8.83;100.00
23589;BME280;11972;48.078;11.876;2022-07-09T00:59:51;96423.81;;;8.86;100.00
23589;BME280;11972;48.078;11.876;2022-07-09T01:03:52;96416.81;;;8.94;100.00
23589;BME280;11972;48.078;11.876;2022-07-09T01:07:52;96416.97;;;9.11;100.00
23589;BME280;11972;48.078;11.876;2022-07-09T01:11:53;96411.09;;;9.35;100.00
23589;BME280;11972;48.078;11.876;2022-07-09T01:15:54;96411.41;;;9.58;100.00
23589;BME280;11972;48.078;11.876;2022-07-09T01:19:54;96405.63;;;9.80;100.00
23589;BME280;11972;48.078;11.876;2022-07-09T01:23:54;96399.97;;;10.01;100.00
23589;BME280;11972;48.078;11.876;2022-07-09T01:27:55;96399.22;;;10.17;100.00
23589;BME280;11972;48.078;11.876;2022-07-09T01:31:55;96393.38;;;10.31;100.00
23589;BME280;11972;48.078;11.876;2022-07-09T01:35:55;96397.06;;;10.47;100.00
23589;BME280;11972;48.078;11.876;2022-07-09T01:39:56;96392.16;;;10.60;100.00
23589;BME280;11972;48.078;11.876;2022-07-09T01:43:56;96383.75;;;10.73;100.00
23589;BME280;11972;48.078;11.876;2022-07-09T01:47:57;96379.16;;;10.83;100.00
23589;BME280;11972;48.078;11.876;2022-07-09T01:51:57;96374.72;;;10.91;100.00
23589;BME280;11972;48.078;11.876;2022-07-09T01:55:58;96372.91;;;11.00;100.00
23589;BME280;11972;48.078;11.876;2022-07-09T01:59:58;96372.09;;;11.08;100.00
23589;BME280;11972;48.078;11.876;2022-07-09T02:03:58;96362.66;;;11.13;100.00
23589;BME280;11972;48.078;11.876;2022-07-09T02:07:59;96359.50;;;11.18;100.00
23589;BME280;11972;48.078;11.876;2022-07-09T02:11:59;96354.41;;;11.25;100.00
23589;BME280;11972;48.078;11.876;2022-07-09T02:15:59;96353.91;;;11.29;100.00
23589;BME280;11972;48.078;11.876;2022-07-09T02:20:01;96352.91;;;11.30;100.00
23589;BME280;11972;48.078;11.876;2022-07-09T02:24:02;96360.69;;;11.32;100.00
23589;BME280;11972;48.078;11.876;2022-07-09T02:28:02;96357.84;;;11.33;100.00
23589;BME280;11972;48.078;11.876;2022-07-09T02:32:03;96362.16;;;11.34;100.00
23589;BME280;11972;48.078;11.876;2022-07-09T02:36:03;96348.94;;;11.34;100.00
23589;BME280;11972;48.078;11.876;2022-07-09T02:40:05;96351.25;;;11.37;100.00
23589;BME280;11972;48.078;11.876;2022-07-09T02:44:05;96343.31;;;11.37;100.00
23589;BME280;11972;48.078;11.876;2022-07-09T02:48:06;96339.84;;;11.37;100.00
23589;BME280;11972;48.078;11.876;2022-07-09T02:52:06;96342.97;;;11.40;100.00
23589;BME280;11972;48.078;11.876;2022-07-09T02:56:07;96337.69;;;11.40;100.00
23589;BME280;11972;48.078;11.876;2022-07-09T03:00:08;96339.66;;;11.38;100.00
23589;BME280;11972;48.078;11.876;2022-07-09T03:04:08;96336.38;;;11.36;100.00
23589;BME280;11972;48.078;11.876;2022-07-09T03:08:09;96337.34;;;11.43;100.00
23589;BME280;11972;48.078;11.876;2022-07-09T03:12:09;96337.34;;;11.43;100.00
23589;BME280;11972;48.078;11.876;2022-07-09T03:16:09;96336.19;;;11.46;100.00
23589;BME280;11972;48.078;11.876;2022-07-09T03:20:10;96339.00;;;11.45;100.00
23589;BME280;11972;48.078;11.876;2022-07-09T03:24:10;96338.19;;;11.44;100.00
23589;BME280;11972;48.078;11.876;2022-07-09T03:28:12;96337.34;;;11.43;100.00
23589;BME280;11972;48.078;11.876;2022-07-09T03:32:12;96341.66;;;11.53;100.00
23589;BME280;11972;48.078;11.876;2022-07-09T03:36:13;96348.22;;;11.73;100.00
23589;BME280;11972;48.078;11.876;2022-07-09T03:40:13;96339.59;;;11.87;100.00
23589;BME280;11972;48.078;11.876;2022-07-09T03:44:13;96342.38;;;12.02;100.00
23589;BME280;11972;48.078;11.876;2022-07-09T03:48:14;96341.97;;;12.13;100.00
23589;BME280;11972;48.078;11.876;2022-07-09T03:52:14;96344.44;;;12.23;100.00
23589;BME280;11972;48.078;11.876;2022-07-09T03:56:15;96347.06;;;12.31;100.00
23589;BME280;11972;48.078;11.876;2022-07-09T04:00:15;96347.66;;;12.41;100.00
23589;BME280;11972;48.078;11.876;2022-07-09T04:04:16;96349.91;;;12.53;100.00
23589;BME280;11972;48.078;11.876;2022-07-09T04:08:16;96342.41;;;12.64;100.00
23589;BME280;11972;48.078;11.876;2022-07-09T04:12:17;96341.34;;;12.74;100.00
23589;BME280;11972;48.078;11.876;2022-07-09T04:16:17;96350.34;;;12.87;100.00
23589;BME280;11972;48.078;11.876;2022-07-09T04:20:18;96360.09;;;12.95;100.00
23589;BME280;11972;48.078;11.876;2022-07-09T04:24:18;96358.66;;;13.07;100.00
23589;BME280;11972;48.078;11.876;2022-07-09T04:28:18;96358.72;;;13.22;100.00
23589;BME280;11972;48.078;11.876;2022-07-09T04:32:19;96360.19;;;13.48;100.00
23589;BME280;11972;48.078;11.876;2022-07-09T04:36:19;96364.81;;;13.54;100.00
23589;BME280;11972;48.078;11.876;2022-07-09T04:40:20;96361.41;;;13.60;100.00
23589;BME280;11972;48.078;11.876;2022-07-09T04:44:20;96360.78;;;13.58;100.00
23589;BME280;11972;48.078;11.876;2022-07-09T04:48:20;96359.03;;;13.50;100.00
23589;BME280;11972;48.078;11.876;2022-07-09T04:52:21;96364.81;;;13.54;100.00
23589;BME280;11972;48.078;11.876;2022-07-09T04:56:21;96361.69;;;13.65;100.00
23589;BME280;11972;48.078;11.876;2022-07-09T05:00:22;96363.16;;;13.82;100.00
23589;BME280;11972;48.078;11.876;2022-07-09T05:04:22;96360.91;;;14.09;100.00
23589;BME280;11972;48.078;11.876;2022-07-09T05:08:22;96359.44;;;14.36;100.00
23589;BME280;11972;48.078;11.876;2022-07-09T05:12:23;96362.44;;;14.62;100.00
23589;BME280;11972;48.078;11.876;2022-07-09T05:16:23;96360.13;;;14.74;100.00
23589;BME280;11972;48.078;11.876;2022-07-09T05:20:24;96364.41;;;14.75;100.00
23589;BME280;11972;48.078;11.876;2022-07-09T05:24:24;96368.34;;;14.79;100.00
23589;BME280;11972;48.078;11.876;2022-07-09T05:28:25;96374.00;;;14.91;100.00
23589;BME280;11972;48.078;11.876;2022-07-09T05:32:25;96371.28;;;15.06;100.00
23589;BME280;11972;48.078;11.876;2022-07-09T05:36:26;96366.09;;;15.19;100.00
23589;BME280;11972;48.078;11.876;2022-07-09T05:40:28;96368.50;;;15.35;100.00
23589;BME280;11972;48.078;11.876;2022-07-09T05:44:29;96363.66;;;15.67;100.00
23589;BME280;11972;48.078;11.876;2022-07-09T05:48:29;96365.50;;;15.95;100.00
23589;BME280;11972;48.078;11.876;2022-07-09T05:52:29;96357.19;;;16.11;100.00
23589;BME280;11972;48.078;11.876;2022-07-09T05:56:30;96368.19;;;16.29;100.00
23589;BME280;11972;48.078;11.876;2022-07-09T06:00:30;96359.22;;;16.44;100.00
23589;BME280;11972;48.078;11.876;2022-07-09T06:04:31;96356.91;;;16.82;100.00
23589;BME280;11972;48.078;11.876;2022-07-09T06:08:32;96358.41;;;17.11;100.00
23589;BME280;11972;48.078;11.876;2022-07-09T06:12:33;96356.19;;;17.34;100.00
23589;BME280;11972;48.078;11.876;2022-07-09T06:16:35;96358.06;;;17.54;100.00
23589;BME280;11972;48.078;11.876;2022-07-09T06:20:35;96362.38;;;17.55;100.00
23589;BME280;11972;48.078;11.876;2022-07-09T06:24:36;96368.13;;;17.85;100.00
23589;BME280;11972;48.078;11.876;2022-07-09T06:28:37;96367.47;;;18.09;100.00
23589;BME280;11972;48.078;11.876;2022-07-09T06:32:37;96361.91;;;18.24;100.00
23589;BME280;11972;48.078;11.876;2022-07-09T06:36:38;96375.06;;;18.32;100.00
23589;BME280;11972;48.078;11.876;2022-07-09T06:40:40;96373.06;;;17.95;100.00
23589;BME280;11972;48.078;11.876;2022-07-09T06:44:40;96369.38;;;17.82;100.00
23589;BME280;11972;48.078;11.876;2022-07-09T06:48:41;96367.09;;;17.46;100.00
23589;BME280;11972;48.078;11.876;2022-07-09T06:52:41;96374.66;;;17.23;100.00
23589;BME280;11972;48.078;11.876;2022-07-09T06:56:41;96367.06;;;17.40;100.00
23589;BME280;11972;48.078;11.876;2022-07-09T07:00:42;96371.00;;;17.37;100.00
23589;BME280;11972;48.078;11.876;2022-07-09T07:04:42;96368.31;;;17.37;100.00
23589;BME280;11972;48.078;11.876;2022-07-09T07:08:42;96375.13;;;17.53;100.00
23589;BME280;11972;48.078;11.876;2022-07-09T07:12:43;96373.50;;;17.78;100.00
23589;BME280;11972;48.078;11.876;2022-07-09T07:16:44;96368.31;;;17.97;100.00
23589;BME280;11972;48.078;11.876;2022-07-09T07:20:44;96372.63;;;17.98;100.00
23589;BME280;11972;48.078;11.876;2022-07-09T07:24:45;96370.19;;;18.03;100.00
23589;BME280;11972;48.078;11.876;2022-07-09T07:28:45;96364.84;;;18.03;100.00
23589;BME280;11972;48.078;11.876;2022-07-09T07:32:45;96369.34;;;18.09;100.00
23589;BME280;11972;48.078;11.876;2022-07-09T07:36:46;96363.72;;;18.44;100.00
23589;BME280;11972;48.078;11.876;2022-07-09T07:40:46;96363.16;;;18.80;100.00
23589;BME280;11972;48.078;11.876;2022-07-09T07:44:46;96355.13;;;19.18;100.00
23589;BME280;11972;48.078;11.876;2022-07-09T07:48:47;96345.28;;;19.44;100.00
23589;BME280;11972;48.078;11.876;2022-07-09T07:52:47;96338.97;;;19.63;100.00
23589;BME280;11972;48.078;11.876;2022-07-09T07:56:47;96349.03;;;19.68;100.00
23589;BME280;11972;48.078;11.876;2022-07-09T08:00:50;96351.03;;;19.97;100.00
23589;BME280;11972;48.078;11.876;2022-07-09T08:04:50;96348.91;;;20.43;100.00
23589;BME280;11972;48.078;11.876;2022-07-09T08:08:50;96346.69;;;20.58;100.00
23589;BME280;11972;48.078;11.876;2022-07-09T08:12:51;96343.16;;;20.39;100.00
23589;BME280;11972;48.078;11.876;2022-07-09T08:16:51;96343.09;;;20.46;100.00
23589;BME280;11972;48.078;11.876;2022-07-09T08:20:51;96340.78;;;20.86;100.00
23589;BME280;11972;48.078;11.876;2022-07-09T08:24:52;96343.63;;;21.03;100.00
23589;BME280;11972;48.078;11.876;2022-07-09T08:28:55;96346.09;;;20.74;100.00
23589;BME280;11972;48.078;11.876;2022-07-09T08:32:56;96344.47;;;20.85;100.00
23589;BME280;11972;48.078;11.876;2022-07-09T08:36:57;96341.16;;;21.31;100.00
23589;BME280;11972;48.078;11.876;2022-07-09T08:40:59;96351.28;;;21.48;100.00
23589;BME280;11972;48.078;11.876;2022-07-09T08:45:01;96341.84;;;21.69;100.00
23589;BME280;11972;48.078;11.876;2022-07-09T08:49:02;96346.19;;;21.82;100.00
23589;BME280;11972;48.078;11.876;2022-07-09T08:53:03;96333.53;;;21.70;100.00
23589;BME280;11972;48.078;11.876;2022-07-09T08:57:05;96330.25;;;21.57;100.00
23589;BME280;11972;48.078;11.876;2022-07-09T09:01:06;96329.88;;;21.11;100.00
23589;BME280;11972;48.078;11.876;2022-07-09T09:05:15;96328.03;;;20.63;100.00
23589;BME280;11972;48.078;11.876;2022-07-09T09:09:19;96326.69;;;20.36;100.00
23589;BME280;11972;48.078;11.876;2022-07-09T09:13:19;96307.75;;;20.30;100.00
23589;BME280;11972;48.078;11.876;2022-07-09T09:17:19;96306.19;;;20.23;100.00
23589;BME280;11972;48.078;11.876;2022-07-09T09:21:24;96296.66;;;20.27;100.00
23589;BME280;11972;48.078;11.876;2022-07-09T09:25:26;96304.63;;;20.52;100.00
23589;BME280;11972;48.078;11.876;2022-07-09T09:29:28;96288.59;;;20.64;100.00
23589;BME280;11972;48.078;11.876;2022-07-09T09:33:29;96290.56;;;20.87;100.00
23589;BME280;11972;48.078;11.876;2022-07-09T09:37:29;96294.31;;;20.97;100.00
23589;BME280;11972;48.078;11.876;2022-07-09T09:41:30;96289.34;;;20.71;100.00
23589;BME280;11972;48.078;11.876;2022-07-09T09:45:33;96290.09;;;20.60;100.00
23589;BME280;11972;48.078;11.876;2022-07-09T09:49:45;96285.09;;;20.63;100.00
23589;BME280;11972;48.078;11.876;2022-07-09T09:53:47;96288.75;;;20.99;100.00
23589;BME280;11972;48.078;11.876;2022-07-09T09:57:49;96281.06;;;21.14;100.00
23589;BME280;11972;48.078;11.876;2022-07-09T10:01:51;96280.56;;;21.36;100.00
23589;BME280;11972;48.078;11.876;2022-07-09T10:05:52;96267.84;;;21.66;100.00
23589;BME280;11972;48.078;11.876;2022-07-09T10:09:59;96281.84;;;21.92;100.00
23589;BME280;11972;48.078;11.876;2022-07-09T10:14:17;96273.41;;;22.00;100.00
23589;BME280;11972;48.078;11.876;2022-07-09T10:18:49;96258.78;;;22.31;100.00
23589;BME280;11972;48.078;11.876;2022-07-09T10:22:50;96257.09;;;22.70;100.00
23589;BME280;11972;48.078;11.876;2022-07-09T10:26:51;96262.84;;;22.74;98.55
23589;BME280;11972;48.078;11.876;2022-07-09T10:30:52;96254.69;;;23.14;95.34
23589;BME280;11972;48.078;11.876;2022-07-09T10:34:58;96260.00;;;23.60;97.40
23589;BME280;11972;48.078;11.876;2022-07-09T10:39:00;96261.50;;;23.67;95.01
23589;BME280;11972;48.078;11.876;2022-07-09T10:43:02;96261.66;;;23.77;90.56
23589;BME280;11972;48.078;11.876;2022-07-09T10:47:04;96250.75;;;24.28;86.33
23589;BME280;11972;48.078;11.876;2022-07-09T10:51:18;96244.66;;;24.38;83.04
23589;BME280;11972;48.078;11.876;2022-07-09T10:55:21;96243.16;;;24.47;84.44
23589;BME280;11972;48.078;11.876;2022-07-09T10:59:23;96238.59;;;24.31;79.66
23589;BME280;11972;48.078;11.876;2022-07-09T11:03:30;96243.00;;;23.59;79.29
23589;BME280;11972;48.078;11.876;2022-07-09T11:07:34;96242.53;;;23.62;82.91
23589;BME280;11972;48.078;11.876;2022-07-09T11:11:36;96238.44;;;23.43;83.90
23589;BME280;11972;48.078;11.876;2022-07-09T11:15:48;96235.00;;;23.64;81.25
23589;BME280;11972;48.078;11.876;2022-07-09T11:19:48;96229.38;;;23.83;86.00
23589;BME280;11972;48.078;11.876;2022-07-09T11:23:49;96220.09;;;23.95;85.26
23589;BME280;11972;48.078;11.876;2022-07-09T11:27:59;96230.56;;;23.92;87.84
23589;BME280;11972;48.078;11.876;2022-07-09T11:32:15;96232.72;;;23.56;85.54
23589;BME280;11972;48.078;11.876;2022-07-09T11:36:46;96222.94;;;23.50;86.07
23589;BME280;11972;48.078;11.876;2022-07-09T11:40:59;96225.75;;;23.60;82.69
23589;BME280;11972;48.078;11.876;2022-07-09T11:45:06;96224.56;;;23.51;81.85
23589;BME280;11972;48.078;11.876;2022-07-09T11:49:16;96227.81;;;23.53;81.92
23589;BME280;11972;48.078;11.876;2022-07-09T11:53:22;96223.22;;;23.53;85.59
23589;BME280;11972;48.078;11.876;2022-07-09T11:57:22;96210.28;;;23.34;91.45
23589;BME280;11972;48.078;11.876;2022-07-09T12:01:23;96201.19;;;23.40;91.46
23589;BME280;11972;48.078;11.876;2022-07-09T12:05:38;96199.53;;;23.72;90.97
23589;BME280;11972;48.078;11.876;2022-07-09T12:09:39;96189.41;;;23.63;89.18
23589;BME280;11972;48.078;11.876;2022-07-09T12:13:39;96199.09;;;23.42;88.26
23589;BME280;11972;48.078;11.876;2022-07-09T12:17:40;96187.75;;;23.06;89.81
23589;BME280;11972;48.078;11.876;2022-07-09T12:21:40;96175.41;;;23.10;91.75
23589;BME280;11972;48.078;11.876;2022-07-09T12:25:40;96173.09;;;23.36;90.92
23589;BME280;11972;48.078;11.876;2022-07-09T12:29:41;96165.56;;;23.71;93.54
23589;BME280;11972;48.078;11.876;2022-07-09T12:33:41;96161.41;;;24.30;89.26
23589;BME280;11972;48.078;11.876;2022-07-09T12:37:42;96149.63;;;25.74;89.26
23589;BME280;11972;48.078;11.876;2022-07-09T12:41:42;96148.22;;;26.19;73.55
23589;BME280;11972;48.078;11.876;2022-07-09T12:45:43;96143.31;;;26.01;68.81
23589;BME280;11972;48.078;11.876;2022-07-09T12:49:43;96135.22;;;26.16;67.56
23589;BME280;11972;48.078;11.876;2022-07-09T12:53:43;96129.31;;;26.40;68.37
23589;BME280;11972;48.078;11.876;2022-07-09T12:57:44;96131.25;;;26.44;63.71
23589;BME280;11972;48.078;11.876;2022-07-09T13:01:44;96123.72;;;27.08;61.93
23589;BME280;11972;48.078;11.876;2022-07-09T13:05:45;96121.28;;;27.01;55.94
23589;BME280;11972;48.078;11.876;2022-07-09T13:09:45;96115.84;;;27.06;59.68
23589;BME280;11972;48.078;11.876;2022-07-09T13:13:46;96106.91;;;27.01;60.64
23589;BME280;11972;48.078;11.876;2022-07-09T13:17:49;96107.13;;;27.55;62.67
23589;BME280;11972;48.078;11.876;2022-07-09T13:21:50;96095.22;;;27.41;57.52
23589;BME280;11972;48.078;11.876;2022-07-09T13:25:50;96102.25;;;27.57;62.18
23589;BME280;11972;48.078;11.876;2022-07-09T13:29:50;96092.28;;;27.32;51.12
23589;BME280;11972;48.078;11.876;2022-07-09T13:33:52;96101.72;;;26.43;57.21
23589;BME280;11972;48.078;11.876;2022-07-09T13:37:52;96104.72;;;25.73;58.61
23589;BME280;11972;48.078;11.876;2022-07-09T13:41:54;96094.38;;;25.60;62.63
23589;BME280;11972;48.078;11.876;2022-07-09T13:45:55;96095.50;;;25.69;71.46
23589;BME280;11972;48.078;11.876;2022-07-09T13:49:56;96087.09;;;26.34;66.91
23589;BME280;11972;48.078;11.876;2022-07-09T13:53:56;96080.06;;;27.04;55.68
23589;BME280;11972;48.078;11.876;2022-07-09T13:57:56;96073.41;;;28.31;56.52
23589;BME280;11972;48.078;11.876;2022-07-09T14:01:57;96067.81;;;28.57;50.20
23589;BME280;11972;48.078;11.876;2022-07-09T14:05:57;96066.63;;;28.29;49.04
23589;BME280;11972;48.078;11.876;2022-07-09T14:09:58;96066.78;;;27.28;51.60
23589;BME280;11972;48.078;11.876;2022-07-09T14:13:58;96060.28;;;27.09;54.42
23589;BME280;11972;48.078;11.876;2022-07-09T14:18:00;96055.13;;;27.02;66.19
23589;BME280;11972;48.078;11.876;2022-07-09T14:22:01;96054.59;;;27.05;60.24
23589;BME280;11972;48.078;11.876;2022-07-09T14:26:01;96058.41;;;26.84;59.68
23589;BME280;11972;48.078;11.876;2022-07-09T14:30:02;96045.38;;;27.16;64.53
23589;BME280;11972;48.078;11.876;2022-07-09T14:34:02;96051.31;;;27.34;59.12
23589;BME280;11972;48.078;11.876;2022-07-09T14:38:03;96048.69;;;26.62;56.90
23589;BME280;11972;48.078;11.876;2022-07-09T14:42:03;96043.41;;;25.99;62.42
23589;BME280;11972;48.078;11.876;2022-07-09T14:46:04;96040.19;;;25.35;66.24
23589;BME280;11972;48.078;11.876;2022-07-09T14:50:04;96039.06;;;24.88;74.51
23589;BME280;11972;48.078;11.876;2022-07-09T14:54:05;96036.88;;;24.48;79.28
23589;BME280;11972;48.078;11.876;2022-07-09T14:58:06;96037.59;;;24.11;83.71
23589;BME280;11972;48.078;11.876;2022-07-09T15:02:06;96035.50;;;24.18;86.04
23589;BME280;11972;48.078;11.876;2022-07-09T15:06:06;96038.84;;;24.31;87.75
23589;BME280;11972;48.078;11.876;2022-07-09T15:10:07;96031.81;;;24.30;88.74
23589;BME280;11972;48.078;11.876;2022-07-09T15:14:07;96025.16;;;24.69;94.14
23589;BME280;11972;48.078;11.876;2022-07-09T15:18:08;96028.69;;;24.70;94.02
23589;BME280;11972;48.078;11.876;2022-07-09T15:22:08;96022.03;;;24.23;89.00
23589;BME280;11972;48.078;11.876;2022-07-09T15:26:09;96020.22;;;23.75;88.68
23589;BME280;11972;48.078;11.876;2022-07-09T15:30:10;96012.50;;;23.40;94.01
23589;BME280;11972;48.078;11.876;2022-07-09T15:34:10;96009.88;;;23.45;97.42
23589;BME280;11972;48.078;11.876;2022-07-09T15:38:11;96007.34;;;23.60;96.46
23589;BME280;11972;48.078;11.876;2022-07-09T15:42:11;96003.94;;;23.92;92.97
23589;BME280;11972;48.078;11.876;2022-07-09T15:46:12;96001.63;;;24.33;93.71
23589;BME280;11972;48.078;11.876;2022-07-09T15:50:12;96001.53;;;24.22;92.00
23589;BME280;11972;48.078;11.876;2022-07-09T15:54:13;95989.50;;;24.03;88.24
23589;BME280;11972;48.078;11.876;2022-07-09T15:58:14;95994.78;;;24.20;88.69
23589;BME280;11972;48.078;11.876;2022-07-09T16:02:14;95981.44;;;24.08;86.21
23589;BME280;11972;48.078;11.876;2022-07-09T16:06:14;95986.59;;;23.83;88.14
23589;BME280;11972;48.078;11.876;2022-07-09T16:10:15;95972.75;;;23.52;88.77
23589;BME280;11972;48.078;11.876;2022-07-09T16:14:16;95972.34;;;23.38;91.22
23589;BME280;11972;48.078;11.876;2022-07-09T16:18:16;95967.81;;;23.44;92.96
23589;BME280;11972;48.078;11.876;2022-07-09T16:22:18;95964.56;;;23.91;89.94
23589;BME280;11972;48.078;11.876;2022-07-09T16:26:19;95959.31;;;24.38;89.60
23589;BME280;11972;48.078;11.876;2022-07-09T16:30:19;95958.63;;;24.21;88.88
23589;BME280;11972;48.078;11.876;2022-07-09T16:34:19;95954.34;;;23.98;91.82
23589;BME280;11972;48.078;11.876;2022-07-09T16:38:20;95944.59;;;23.92;89.21
23589;BME280;11972;48.078;11.876;2022-07-09T16:42:20;95949.06;;;24.08;89.81
23589;BME280;11972;48.078;11.876;2022-07-09T16:46:20;95950.69;;;24.09;91.72
23589;BME280;11972;48.078;11.876;2022-07-09T16:50:21;95943.38;;;23.77;93.73
23589;BME280;11972;48.078;11.876;2022-07-09T16:54:21;95941.13;;;23.42;97.42
23589;BME280;11972;48.078;11.876;2022-07-09T16:58:21;95952.47;;;23.22;96.04
23589;BME280;11972;48.078;11.876;2022-07-09T17:02:22;95944.38;;;23.22;99.02
23589;BME280;11972;48.078;11.876;2022-07-09T17:06:22;95934.06;;;23.14;95.40
23589;BME280;11972;48.078;11.876;2022-07-09T17:10:23;95933.84;;;22.99;95.25
23589;BME280;11972;48.078;11.876;2022-07-09T17:14:23;95930.19;;;23.05;95.40
23589;BME280;11972;48.078;11.876;2022-07-09T17:18:23;95937.19;;;23.06;96.53
23589;BME280;11972;48.078;11.876;2022-07-09T17:22:24;95928.72;;;22.97;99.27
23589;BME280;11972;48.078;11.876;2022-07-09T17:26:24;95922.72;;;22.73;100.00
23589;BME280;11972;48.078;11.876;2022-07-09T17:30:24;95923.97;;;22.66;98.74
23589;BME280;11972;48.078;11.876;2022-07-09T17:34:24;95923.88;;;22.77;98.30
23589;BME280;11972;48.078;11.876;2022-07-09T17:38:25;95924.94;;;22.76;97.54
23589;BME280;11972;48.078;11.876;2022-07-09T17:42:29;95927.56;;;22.54;97.73
23589;BME280;11972;48.078;11.876;2022-07-09T17:46:29;95922.16;;;22.33;99.85
23589;BME280;11972;48.078;11.876;2022-07-09T17:50:29;95916.69;;;22.27;100.00
23589;BME280;11972;48.078;11.876;2022-07-09T17:54:30;95917.03;;;22.14;100.00
23589;BME280;11972;48.078;11.876;2022-07-09T17:58:30;95921.81;;;21.95;100.00
23589;BME280;11972;48.078;11.876;2022-07-09T18:02:30;95926.69;;;21.82;100.00
23589;BME280;11972;48.078;11.876;2022-07-09T18:06:31;95930.75;;;21.67;100.00
23589;BME280;11972;48.078;11.876;2022-07-09T18:10:31;95916.53;;;21.55;100.00
23589;BME280;11972;48.078;11.876;2022-07-09T18:14:32;95923.03;;;21.42;100.00
23589;BME280;11972;48.078;11.876;2022-07-09T18:18:32;95919.56;;;21.30;100.00
23589;BME280;11972;48.078;11.876;2022-07-09T18:22:34;95918.56;;;21.19;100.00
23589;BME280;11972;48.078;11.876;2022-07-09T18:26:34;95906.44;;;21.05;100.00
23589;BME280;11972;48.078;11.876;2022-07-09T18:30:36;95907.78;;;20.91;100.00
23589;BME280;11972;48.078;11.876;2022-07-09T18:34:37;95906.75;;;20.80;100.00
23589;BME280;11972;48.078;11.876;2022-07-09T18:38:38;95914.34;;;20.71;100.00
23589;BME280;11972;48.078;11.876;2022-07-09T18:42:38;95917.31;;;20.58;100.00
23589;BME280;11972;48.078;11.876;2022-07-09T18:46:39;95914.34;;;20.48;100.00
23589;BME280;11972;48.078;11.876;2022-07-09T18:50:39;95911.09;;;20.34;100.00
23589;BME280;11972;48.078;11.876;2022-07-09T18:54:40;95911.00;;;20.17;100.00
23589;BME280;11972;48.078;11.876;2022-07-09T18:58:40;95908.03;;;19.95;100.00
23589;BME280;11972;48.078;11.876;2022-07-09T19:02:40;95904.53;;;19.71;100.00
23589;BME280;11972;48.078;11.876;2022-07-09T19:06:41;95906.19;;;19.54;100.00
23589;BME280;11972;48.078;11.876;2022-07-09T19:10:42;95904.88;;;19.45;100.00
23589;BME280;11972;48.078;11.876;2022-07-09T19:14:42;95899.03;;;19.36;100.00
23589;BME280;11972;48.078;11.876;2022-07-09T19:18:42;95907.59;;;19.15;100.00
23589;BME280;11972;48.078;11.876;2022-07-09T19:22:43;95904.13;;;18.77;100.00
23589;BME280;11972;48.078;11.876;2022-07-09T19:26:43;95908.78;;;18.45;100.00
23589;BME280;11972;48.078;11.876;2022-07-09T19:30:44;95898.41;;;18.12;100.00
23589;BME280;11972;48.078;11.876;2022-07-09T19:35:03;95912.66;;;17.81;100.00
23589;BME280;11972;48.078;11.876;2022-07-09T19:39:05;95912.59;;;17.56;100.00
23589;BME280;11972;48.078;11.876;2022-07-09T19:43:05;95922.00;;;17.33;100.00
23589;BME280;11972;48.078;11.876;2022-07-09T19:47:06;95919.06;;;17.10;100.00
23589;BME280;11972;48.078;11.876;2022-07-09T19:51:07;95923.31;;;16.79;100.00
23589;BME280;11972;48.078;11.876;2022-07-09T19:55:07;95929.72;;;16.52;100.00
23589;BME280;11972;48.078;11.876;2022-07-09T19:59:08;95933.88;;;16.34;100.00
23589;BME280;11972;48.078;11.876;2022-07-09T20:03:09;95940.19;;;16.33;100.00
23589;BME280;11972;48.078;11.876;2022-07-09T20:07:09;95941.63;;;16.43;100.00
23589;BME280;11972;48.078;11.876;2022-07-09T20:11:09;95937.09;;;16.50;100.00
23589;BME280;11972;48.078;11.876;2022-07-09T20:15:10;95934.19;;;16.58;100.00
23589;BME280;11972;48.078;11.876;2022-07-09T20:19:10;95929.25;;;16.68;100.00
23589;BME280;11972;48.078;11.876;2022-07-09T20:23:11;95929.47;;;16.73;100.00
23589;BME280;11972;48.078;11.876;2022-07-09T20:27:11;95918.97;;;16.78;100.00
23589;BME280;11972;48.078;11.876;2022-07-09T20:31:12;95922.88;;;16.82;100.00
23589;BME280;11972;48.078;11.876;2022-07-09T20:35:12;95930.03;;;16.89;100.00
23589;BME280;11972;48.078;11.876;2022-07-09T20:39:13;95924.28;;;16.92;100.00
23589;BME280;11972;48.078;11.876;2022-07-09T20:43:13;95928.16;;;16.96;100.00
23589;BME280;11972;48.078;11.876;2022-07-09T20:47:14;95929.56;;;16.98;100.00
23589;BME280;11972;48.078;11.876;2022-07-09T20:51:14;95938.19;;;17.00;100.00